createdAt,value
2022-10-28T00:02:16.948Z,6.45
2022-10-28T00:04:43.335Z,5.75
2022-10-28T00:07:09.689Z,6.22
2022-10-28T00:09:36.069Z,5.90
2022-10-28T00:12:02.599Z,6.68
2022-10-28T00:14:29.057Z,6.10
2022-10-28T00:16:55.400Z,6.38
2022-10-28T00:19:21.704Z,5.97
2022-10-28T00:21:48.077Z,6.35
2022-10-28T00:24:14.845Z,6.60
2022-10-28T00:26:45.858Z,7.22
2022-10-28T00:29:16.897Z,5.78
2022-10-28T00:31:43.832Z,5.93
2022-10-28T00:34:11.799Z,6.03
2022-10-28T00:36:39.626Z,5.90
2022-10-28T00:39:13.507Z,6.40
2022-10-28T00:41:42.540Z,6.95
2022-10-28T00:44:27.648Z,7.28
2022-10-28T00:46:54.142Z,6.30
2022-10-28T00:49:23.662Z,6.03
2022-10-28T00:51:53.536Z,6.97
2022-10-28T00:54:20.573Z,6.20
2022-10-28T00:56:49.601Z,6.43
2022-10-28T00:59:21.552Z,6.68
2022-10-28T01:01:47.972Z,6.50
2022-10-28T01:04:14.454Z,6.70
2022-10-28T01:06:41.506Z,7.28
2022-10-28T01:09:07.978Z,7.63
2022-10-28T01:11:54.336Z,7.20
2022-10-28T01:14:34.773Z,6.72
2022-10-28T01:17:13.325Z,6.20
2022-10-28T01:20:09.429Z,6.82
2022-10-28T01:22:46.337Z,6.47
2022-10-28T01:25:25.808Z,6.80
2022-10-28T01:28:08.888Z,6.90
2022-10-28T01:30:53.558Z,6.95
2022-10-28T01:33:34.477Z,7.05
2022-10-28T01:36:08.113Z,6.55
2022-10-28T01:38:49.786Z,6.95
2022-10-28T01:41:28.374Z,6.75
2022-10-28T01:43:58.216Z,7.28
2022-10-28T01:46:39.690Z,6.65
2022-10-28T01:49:16.746Z,6.70
2022-10-28T01:51:46.108Z,6.72
2022-10-28T01:54:15.136Z,6.93
2022-10-28T01:56:42.670Z,6.60
2022-10-28T01:59:13.331Z,6.95
2022-10-28T02:01:39.899Z,7.30
2022-10-28T02:04:06.437Z,6.53
2022-10-28T02:06:34.681Z,7.22
2022-10-28T02:09:23.846Z,6.47
2022-10-28T02:11:50.293Z,6.40
2022-10-28T02:14:19.626Z,7.38
2022-10-28T02:16:58.275Z,6.78
2022-10-28T02:19:35.466Z,6.60
2022-10-28T02:22:15.496Z,6.65
2022-10-28T02:24:48.965Z,6.35
2022-10-28T02:27:24.536Z,7.57
2022-10-28T02:29:55.611Z,7.05
2022-10-28T02:32:24.799Z,7.78
2022-10-28T02:34:54.012Z,7.68
2022-10-28T02:37:31.777Z,6.80
2022-10-28T02:39:59.880Z,7.57
2022-10-28T02:42:28.362Z,6.75
2022-10-28T02:44:57.966Z,7.30
2022-10-28T02:47:26.501Z,6.55
2022-10-28T02:49:56.464Z,8.02
2022-10-28T02:52:25.307Z,7.28
2022-10-28T02:54:58.989Z,6.75
2022-10-28T02:57:26.488Z,7.07
2022-10-28T02:59:54.046Z,6.82
2022-10-28T03:02:20.705Z,7.30
2022-10-28T03:04:47.127Z,6.70
2022-10-28T03:07:13.513Z,8.10
2022-10-28T03:09:40.001Z,8.10
2022-10-28T03:12:06.433Z,7.80
2022-10-28T03:14:32.798Z,5.72
2022-10-28T03:16:59.145Z,7.32
2022-10-28T03:19:25.691Z,7.38
2022-10-28T03:21:52.002Z,7.35
2022-10-28T03:24:18.354Z,6.82
2022-10-28T03:26:44.700Z,7.18
2022-10-28T03:29:11.161Z,6.82
2022-10-28T03:31:37.556Z,7.15
2022-10-28T03:34:03.953Z,6.97
2022-10-28T03:36:30.258Z,6.63
2022-10-28T03:38:56.642Z,6.75
2022-10-28T03:41:23.010Z,7.20
2022-10-28T03:43:49.345Z,7.72
2022-10-28T03:46:15.724Z,7.75
2022-10-28T03:48:42.076Z,6.78
2022-10-28T03:51:08.538Z,6.68
2022-10-28T03:53:34.971Z,7.63
2022-10-28T03:56:01.751Z,6.68
2022-10-28T03:58:28.279Z,7.95
2022-10-28T04:00:55.133Z,7.43
2022-10-28T04:03:22.197Z,6.65
2022-10-28T04:05:48.713Z,7.80
2022-10-28T04:08:15.623Z,7.57
2022-10-28T04:10:47.153Z,7.85
2022-10-28T04:13:14.617Z,7.28
2022-10-28T04:15:41.132Z,7.30
2022-10-28T04:18:07.553Z,7.38
2022-10-28T04:20:33.888Z,8.38
2022-10-28T04:23:00.587Z,8.05
2022-10-28T04:25:27.623Z,7.38
2022-10-28T04:27:54.613Z,7.45
2022-10-28T04:30:21.437Z,7.03
2022-10-28T04:32:47.766Z,7.63
2022-10-28T04:35:14.281Z,6.72
2022-10-28T04:37:40.984Z,6.85
2022-10-28T04:40:08.549Z,7.22
2022-10-28T04:42:35.010Z,7.90
2022-10-28T04:45:01.405Z,7.60
2022-10-28T04:47:27.786Z,7.72
2022-10-28T04:49:54.114Z,7.30
2022-10-28T04:52:20.486Z,7.60
2022-10-28T04:54:46.878Z,8.48
2022-10-28T04:57:13.225Z,8.18
2022-10-28T04:59:39.689Z,7.32
2022-10-28T05:02:06.121Z,6.82
2022-10-28T05:04:32.558Z,7.43
2022-10-28T05:06:58.847Z,7.40
2022-10-28T05:09:25.141Z,6.47
2022-10-28T05:11:51.909Z,7.68
2022-10-28T05:14:18.243Z,7.47
2022-10-28T05:16:44.535Z,6.80
2022-10-28T05:19:10.876Z,7.18
2022-10-28T05:21:37.259Z,6.22
2022-10-28T05:24:03.735Z,6.80
2022-10-28T05:26:30.023Z,6.97
2022-10-28T05:28:56.320Z,7.05
2022-10-28T05:31:22.774Z,6.63
2022-10-28T05:33:49.125Z,7.07
2022-10-28T05:36:15.409Z,6.65
2022-10-28T05:38:45.265Z,7.85
2022-10-28T05:41:11.960Z,7.35
2022-10-28T05:43:38.271Z,7.13
2022-10-28T05:46:04.962Z,7.20
2022-10-28T05:48:31.295Z,7.57
2022-10-28T05:50:57.593Z,6.93
2022-10-28T05:53:23.941Z,6.82
2022-10-28T05:55:50.289Z,7.90
2022-10-28T05:58:16.590Z,7.75
2022-10-28T06:00:42.905Z,7.32
2022-10-28T06:03:11.985Z,7.65
2022-10-28T06:05:39.321Z,7.53
2022-10-28T06:08:05.828Z,7.97
2022-10-28T06:10:32.537Z,7.35
2022-10-28T06:12:57.463Z,6.40
2022-10-28T06:15:23.876Z,6.57
2022-10-28T06:17:50.294Z,7.32
2022-10-28T06:20:17.161Z,7.25
2022-10-28T06:22:50.566Z,7.07
2022-10-28T06:25:17.973Z,7.40
2022-10-28T06:27:44.517Z,6.88
2022-10-28T06:30:11.045Z,7.43
2022-10-28T06:32:37.388Z,7.40
2022-10-28T06:35:03.784Z,7.47
2022-10-28T06:37:30.122Z,7.00
2022-10-28T06:39:58.707Z,7.20
2022-10-28T06:42:25.039Z,7.80
2022-10-28T06:44:53.061Z,7.07
2022-10-28T06:47:21.580Z,7.10
2022-10-28T06:49:47.912Z,6.75
2022-10-28T06:52:14.247Z,7.05
2022-10-28T06:54:40.615Z,6.53
2022-10-28T06:57:06.961Z,6.40
2022-10-28T06:59:33.287Z,7.30
2022-10-28T07:01:59.707Z,7.88
2022-10-28T07:04:26.055Z,6.30
2022-10-28T07:06:55.943Z,6.90
2022-10-28T07:11:54.980Z,6.60
2022-10-28T07:14:21.712Z,6.53
2022-10-28T07:16:48.062Z,6.50
2022-10-28T07:19:16.196Z,6.63
2022-10-28T07:21:44.646Z,7.30
2022-10-28T07:24:10.951Z,7.03
2022-10-28T07:26:37.288Z,6.97
2022-10-28T07:29:03.621Z,6.80
2022-10-28T07:31:31.356Z,6.85
2022-10-28T07:33:57.710Z,6.68
2022-10-28T07:36:24.038Z,6.97
2022-10-28T07:38:51.711Z,7.05
2022-10-28T07:41:19.525Z,7.25
2022-10-28T07:43:46.131Z,6.25
2022-10-28T07:46:12.452Z,6.53
2022-10-28T07:48:38.799Z,6.50
2022-10-28T07:51:06.283Z,6.68
2022-10-28T07:53:33.187Z,6.38
2022-10-28T07:56:01.162Z,6.43
2022-10-28T07:58:27.585Z,6.72
2022-10-28T08:00:54.013Z,6.25
2022-10-28T08:03:20.665Z,6.75
2022-10-28T08:05:47.161Z,6.95
2022-10-28T08:08:13.626Z,6.50
2022-10-28T08:10:39.975Z,6.15
2022-10-28T08:13:07.032Z,6.07
2022-10-28T08:15:33.542Z,6.10
2022-10-28T08:17:59.908Z,6.15
2022-10-28T08:20:26.208Z,5.70
2022-10-28T08:22:52.857Z,5.95
2022-10-28T08:25:19.535Z,6.30
2022-10-28T08:27:45.855Z,7.03
2022-10-28T08:30:12.325Z,6.20
2022-10-28T08:32:38.631Z,6.22
2022-10-28T08:35:05.257Z,5.35
2022-10-28T08:37:31.616Z,5.65
2022-10-28T08:39:57.987Z,6.82
2022-10-28T08:42:29.701Z,5.82
2022-10-28T08:45:15.439Z,6.68
2022-10-28T08:47:54.020Z,6.30
2022-10-28T08:50:22.222Z,6.53
2022-10-28T08:52:55.838Z,6.28
2022-10-28T08:55:25.602Z,6.80
2022-10-28T08:58:06.155Z,6.10
2022-10-28T09:00:33.772Z,7.50
2022-10-28T09:03:12.236Z,6.18
2022-10-28T09:05:43.419Z,6.40
2022-10-28T09:08:36.265Z,6.10
2022-10-28T09:13:39.815Z,5.45
2022-10-28T09:16:06.126Z,5.72
2022-10-28T09:18:44.667Z,6.10
2022-10-28T09:21:17.703Z,6.30
2022-10-28T09:23:49.456Z,6.95
2022-10-28T09:26:22.253Z,6.30
2022-10-28T09:28:54.645Z,6.63
2022-10-28T09:33:53.450Z,7.15
2022-10-28T09:38:46.143Z,6.22
2022-10-28T09:41:24.176Z,6.85
2022-10-28T09:43:56.657Z,6.57
2022-10-28T09:46:23.772Z,7.13
2022-10-28T09:48:51.619Z,7.20
2022-10-28T09:51:23.920Z,7.47
2022-10-28T09:53:53.899Z,6.22
2022-10-28T09:56:20.265Z,6.60
2022-10-28T09:58:47.287Z,6.57
2022-10-28T10:01:16.585Z,6.05
2022-10-28T10:03:43.562Z,5.63
2022-10-28T10:06:14.827Z,4.90
2022-10-28T10:08:41.652Z,5.20
2022-10-28T10:11:23.231Z,5.32
2022-10-28T10:13:50.104Z,5.28
2022-10-28T10:16:20.111Z,5.10
2022-10-28T10:18:50.275Z,5.10
2022-10-28T10:21:20.035Z,4.57
2022-10-28T10:23:46.343Z,5.47
2022-10-28T10:26:13.417Z,4.60
2022-10-28T10:28:43.623Z,4.25
2022-10-28T10:31:16.980Z,4.82
2022-10-28T10:33:43.392Z,4.35
2022-10-28T10:36:09.667Z,4.43
2022-10-28T10:38:36.495Z,4.10
2022-10-28T10:41:03.079Z,4.95
2022-10-28T10:43:34.117Z,4.65
2022-10-28T10:46:00.683Z,4.78
2022-10-28T10:48:27.811Z,4.20
2022-10-28T10:50:54.567Z,4.15
2022-10-28T10:53:23.296Z,4.90
2022-10-28T10:56:01.192Z,4.50
2022-10-28T10:58:28.751Z,4.15
2022-10-28T11:00:55.874Z,4.70
2022-10-28T11:03:25.300Z,4.07
2022-10-28T11:06:05.346Z,4.32
2022-10-28T11:08:40.992Z,4.22
2022-10-28T11:11:12.810Z,4.97
2022-10-28T11:13:42.312Z,4.90
2022-10-28T11:16:17.784Z,4.78
2022-10-28T11:18:45.377Z,4.97
2022-10-28T11:21:30.552Z,4.07
2022-10-28T11:24:08.783Z,4.72
2022-10-28T11:26:38.778Z,4.25
2022-10-28T11:29:07.871Z,5.10
2022-10-28T11:31:48.254Z,4.20
2022-10-28T11:34:29.734Z,4.32
2022-10-28T11:37:16.152Z,5.07
2022-10-28T11:40:10.210Z,4.25
2022-10-28T11:42:44.500Z,5.53
2022-10-28T11:45:29.243Z,4.45
2022-10-28T11:47:55.957Z,4.43
2022-10-28T11:50:39.159Z,4.55
2022-10-28T11:53:26.315Z,4.30
2022-10-28T11:56:04.338Z,4.85
2022-10-28T11:58:41.046Z,4.20
2022-10-28T12:01:10.410Z,4.30
2022-10-28T12:03:47.250Z,3.80
2022-10-28T12:06:16.961Z,3.65
2022-10-28T12:08:50.781Z,4.63
2022-10-28T12:11:25.748Z,4.57
2022-10-28T12:16:38.775Z,5.03
2022-10-28T12:19:11.188Z,4.73
2022-10-28T12:21:43.723Z,4.38
2022-10-28T12:24:15.273Z,4.03
2022-10-28T12:26:47.561Z,3.80
2022-10-28T12:29:24.323Z,4.18
2022-10-28T12:31:53.870Z,4.20
2022-10-28T12:34:23.673Z,4.60
2022-10-28T12:36:55.416Z,4.50
2022-10-28T12:39:26.845Z,4.50
2022-10-28T12:42:11.948Z,4.10
2022-10-28T12:44:38.781Z,3.90
2022-10-28T12:47:37.809Z,4.93
2022-10-28T12:50:06.844Z,3.97
2022-10-28T12:52:38.967Z,4.53
2022-10-28T12:57:34.070Z,3.65
2022-10-28T13:00:13.739Z,3.95
2022-10-28T13:03:01.364Z,4.22
2022-10-28T13:05:31.216Z,4.32
2022-10-28T13:08:16.375Z,3.63
2022-10-28T13:10:46.333Z,4.30
2022-10-28T13:13:17.653Z,3.90
2022-10-28T13:15:44.001Z,4.13
2022-10-28T13:18:13.446Z,4.88
2022-10-28T13:20:58.559Z,3.83
2022-10-28T13:23:28.764Z,4.93
2022-10-28T13:26:13.662Z,4.70
2022-10-28T13:28:47.800Z,4.03
2022-10-28T13:31:15.446Z,4.40
2022-10-28T13:33:55.665Z,4.40
2022-10-28T13:36:26.375Z,3.95
2022-10-28T13:38:54.280Z,3.95
2022-10-28T13:41:27.474Z,4.40
2022-10-28T13:43:54.348Z,4.80
2022-10-28T13:46:39.574Z,4.57
2022-10-28T13:49:23.147Z,4.40
2022-10-28T13:51:59.883Z,4.32
2022-10-28T13:54:27.883Z,4.30
2022-10-28T13:56:55.169Z,4.68
2022-10-28T13:59:23.615Z,3.83
2022-10-28T14:02:07.450Z,4.88
2022-10-28T14:04:41.362Z,4.70
2022-10-28T14:07:10.703Z,4.07
2022-10-28T14:09:37.879Z,4.40
2022-10-28T14:12:11.508Z,4.18
2022-10-28T14:14:37.904Z,4.00
2022-10-28T14:17:04.333Z,4.18
2022-10-28T14:19:30.711Z,4.88
2022-10-28T14:22:02.388Z,4.63
2022-10-28T14:24:33.900Z,4.45
2022-10-28T14:27:09.804Z,4.90
2022-10-28T14:29:59.459Z,4.65
2022-10-28T14:32:32.172Z,4.95
2022-10-28T14:35:18.767Z,5.28
2022-10-28T14:38:01.379Z,4.57
2022-10-28T14:40:46.615Z,5.15
2022-10-28T14:43:12.934Z,5.03
2022-10-28T14:46:03.193Z,5.45
2022-10-28T14:48:32.379Z,4.53
2022-10-28T14:51:00.950Z,4.45
2022-10-28T14:53:34.219Z,4.80
2022-10-28T14:56:00.528Z,4.72
2022-10-28T14:58:31.295Z,4.68
2022-10-28T15:01:09.560Z,4.18
2022-10-28T15:03:36.512Z,4.78
2022-10-28T15:06:19.326Z,4.22
2022-10-28T15:08:45.712Z,4.20
2022-10-28T15:11:15.316Z,4.80
2022-10-28T15:13:42.475Z,4.45
2022-10-28T15:16:24.611Z,4.82
2022-10-28T15:18:52.267Z,4.18
2022-10-28T15:21:19.864Z,4.60
2022-10-28T15:23:57.792Z,4.07
2022-10-28T15:26:24.103Z,3.88
2022-10-28T15:28:50.459Z,4.20
2022-10-28T15:31:17.291Z,4.22
2022-10-28T15:33:43.601Z,4.55
2022-10-28T15:36:17.835Z,3.70
2022-10-28T15:39:04.992Z,4.20
2022-10-28T15:41:42.062Z,3.85
2022-10-28T15:44:23.294Z,4.28
2022-10-28T15:46:50.110Z,4.60
2022-10-28T15:49:31.221Z,4.85
2022-10-28T15:52:16.358Z,5.50
2022-10-28T15:54:43.508Z,4.07
2022-10-28T15:57:21.102Z,5.00
2022-10-28T15:59:47.428Z,4.40
2022-10-28T16:02:32.686Z,4.68
2022-10-28T16:04:59.199Z,4.70
2022-10-28T16:07:25.530Z,4.80
2022-10-28T16:09:52.670Z,4.70
2022-10-28T16:12:21.028Z,5.80
2022-10-28T16:14:53.634Z,5.10
2022-10-28T16:19:59.849Z,4.50
2022-10-28T16:22:27.314Z,4.85
2022-10-28T16:24:54.150Z,4.63
2022-10-28T16:27:21.682Z,4.20
2022-10-28T16:29:48.456Z,3.88
2022-10-28T16:32:15.796Z,5.07
2022-10-28T16:34:42.204Z,4.70
2022-10-28T16:37:20.452Z,5.72
2022-10-28T16:39:49.799Z,8.20
2022-10-28T16:42:16.683Z,8.00
2022-10-28T16:44:43.064Z,10.73
2022-10-28T16:47:10.907Z,9.45
2022-10-28T16:49:37.206Z,8.27
2022-10-28T16:52:03.627Z,5.45
2022-10-28T16:54:29.927Z,5.30
2022-10-28T16:56:57.079Z,7.15
2022-10-28T16:59:23.548Z,4.50
2022-10-28T17:01:50.350Z,5.70
2022-10-28T17:04:16.787Z,6.82
2022-10-28T17:06:43.092Z,5.97
2022-10-28T17:09:09.386Z,5.47
2022-10-28T17:11:35.729Z,9.63
2022-10-28T17:14:02.035Z,6.65
2022-10-28T17:16:28.371Z,5.97
2022-10-28T17:18:54.789Z,5.38
2022-10-28T17:21:21.102Z,5.07
2022-10-28T17:23:47.411Z,4.30
2022-10-28T17:26:13.744Z,4.65
2022-10-28T17:28:40.072Z,5.00
2022-10-28T17:31:07.436Z,4.93
2022-10-28T17:33:33.906Z,5.20
2022-10-28T17:36:00.958Z,5.35
2022-10-28T17:38:27.305Z,5.30
2022-10-28T17:40:54.892Z,5.35
2022-10-28T17:43:21.827Z,5.65
2022-10-28T17:45:48.157Z,5.05
2022-10-28T17:48:14.497Z,4.60
2022-10-28T17:50:40.851Z,5.15
2022-10-28T17:53:07.226Z,4.35
2022-10-28T17:55:33.569Z,4.63
2022-10-28T17:57:59.970Z,4.95
2022-10-28T18:00:26.307Z,5.15
2022-10-28T18:02:56.370Z,6.43
2022-10-28T18:05:22.897Z,5.53
2022-10-28T18:07:49.201Z,6.10
2022-10-28T18:10:16.701Z,5.72
2022-10-28T18:12:43.089Z,6.22
2022-10-28T18:15:10.814Z,6.68
2022-10-28T18:17:38.546Z,7.28
2022-10-28T18:20:05.212Z,6.45
2022-10-28T18:22:31.573Z,6.93
2022-10-28T18:24:57.902Z,6.85
2022-10-28T18:27:24.240Z,5.50
2022-10-28T18:29:50.571Z,6.20
2022-10-28T18:32:16.903Z,6.88
2022-10-28T18:34:43.364Z,6.43
2022-10-28T18:37:11.652Z,6.22
2022-10-28T18:39:38.252Z,6.05
2022-10-28T18:42:04.787Z,6.85
2022-10-28T18:44:31.892Z,6.82
2022-10-28T18:46:59.044Z,7.50
2022-10-28T18:49:25.422Z,8.57
2022-10-28T18:51:51.730Z,8.07
2022-10-28T18:54:18.074Z,7.25
2022-10-28T18:56:47.673Z,6.22
2022-10-28T18:59:15.069Z,7.28
2022-10-28T19:01:46.475Z,7.70
2022-10-28T19:04:14.184Z,7.33
2022-10-28T19:06:40.617Z,7.40
2022-10-28T19:09:07.504Z,6.63
2022-10-28T19:11:34.170Z,8.77
2022-10-28T19:14:02.208Z,10.10
2022-10-28T19:16:30.001Z,8.20
2022-10-28T19:18:57.172Z,7.13
2022-10-28T19:21:24.044Z,7.88
2022-10-28T19:23:50.836Z,10.23
2022-10-28T19:26:17.202Z,11.05
2022-10-28T19:28:44.914Z,12.35
2022-10-28T19:31:12.790Z,10.57
2022-10-28T19:33:39.382Z,10.57
2022-10-28T19:36:18.529Z,9.63
2022-10-28T19:38:45.506Z,9.45
2022-10-28T19:41:16.165Z,8.68
2022-10-28T19:43:42.613Z,11.68
2022-10-28T19:46:12.814Z,12.48
2022-10-28T19:48:40.064Z,13.60
2022-10-28T19:51:07.227Z,12.18
2022-10-28T19:53:34.135Z,11.10
2022-10-28T19:56:01.498Z,12.70
2022-10-28T19:58:28.868Z,11.27
2022-10-28T20:00:59.518Z,10.95
2022-10-28T20:03:26.048Z,10.57
2022-10-28T20:06:02.734Z,11.38
2022-10-28T20:08:29.179Z,12.80
2022-10-28T20:11:03.425Z,12.13
2022-10-28T20:13:29.799Z,13.13
2022-10-28T20:15:59.968Z,12.15
2022-10-28T20:18:26.308Z,9.70
2022-10-28T20:20:52.677Z,9.25
2022-10-28T20:23:19.137Z,9.85
2022-10-28T20:25:49.300Z,8.60
2022-10-28T20:28:15.763Z,9.18
2022-10-28T20:30:42.178Z,9.02
2022-10-28T20:33:08.483Z,8.57
2022-10-28T20:35:35.748Z,10.60
2022-10-28T20:38:02.148Z,11.60
2022-10-28T20:40:28.605Z,10.60
2022-10-28T20:42:55.224Z,9.32
2022-10-28T20:45:21.771Z,10.88
2022-10-28T20:47:48.136Z,10.20
2022-10-28T20:50:14.531Z,9.93
2022-10-28T20:52:41.166Z,10.75
2022-10-28T20:55:07.983Z,11.20
2022-10-28T20:57:34.368Z,10.68
2022-10-28T21:00:00.754Z,10.43
2022-10-28T21:02:27.280Z,10.05
2022-10-28T21:04:53.852Z,10.13
2022-10-28T21:07:20.184Z,9.27
2022-10-28T21:09:46.696Z,8.60
2022-10-28T21:12:13.039Z,8.38
2022-10-28T21:14:39.371Z,8.32
2022-10-28T21:17:05.708Z,9.57
2022-10-28T21:19:32.158Z,8.65
2022-10-28T21:21:58.776Z,7.82
2022-10-28T21:24:25.115Z,8.38
2022-10-28T21:26:52.220Z,7.63
2022-10-28T21:29:18.686Z,7.10
2022-10-28T21:31:45.138Z,7.00
2022-10-28T21:34:11.476Z,6.68
2022-10-28T21:36:37.822Z,6.75
2022-10-28T21:39:04.276Z,7.15
2022-10-28T21:41:31.147Z,6.85
2022-10-28T21:43:57.498Z,7.30
2022-10-28T21:46:24.331Z,6.68
2022-10-28T21:48:50.675Z,6.30
2022-10-28T21:51:17.208Z,6.82
2022-10-28T21:53:44.441Z,7.47
2022-10-28T21:56:16.519Z,7.50
2022-10-28T21:58:43.419Z,7.88
2022-10-28T22:01:14.176Z,6.85
2022-10-28T22:03:40.599Z,7.40
2022-10-28T22:06:07.269Z,9.00
2022-10-28T22:08:34.055Z,7.63
2022-10-28T22:11:00.683Z,7.85
2022-10-28T22:13:27.413Z,7.10
2022-10-28T22:15:58.291Z,8.77
2022-10-28T22:18:25.255Z,7.15
2022-10-28T22:20:51.593Z,8.60
2022-10-28T22:23:17.928Z,7.72
2022-10-28T22:25:44.374Z,8.30
2022-10-28T22:28:10.678Z,9.25
2022-10-28T22:30:37.111Z,9.40
2022-10-28T22:33:03.567Z,8.63
2022-10-28T22:35:29.999Z,9.90
2022-10-28T22:37:56.806Z,9.55
2022-10-28T22:40:23.472Z,8.82
2022-10-28T22:42:49.802Z,10.85
2022-10-28T22:45:16.482Z,9.48
2022-10-28T22:47:42.883Z,10.15
2022-10-28T22:50:09.430Z,10.45
2022-10-28T22:52:35.849Z,11.57
2022-10-28T22:55:02.266Z,14.52
2022-10-28T22:57:28.596Z,17.40
2022-10-28T22:59:55.036Z,16.48
2022-10-28T23:02:21.602Z,15.77
2022-10-28T23:04:48.092Z,12.05
2022-10-28T23:07:14.441Z,11.80
2022-10-28T23:09:40.758Z,12.32
2022-10-28T23:12:07.456Z,12.40
2022-10-28T23:14:33.831Z,11.20
2022-10-28T23:17:00.122Z,11.35
2022-10-28T23:19:27.535Z,10.13
2022-10-28T23:21:53.940Z,9.27
2022-10-28T23:24:20.270Z,8.38
2022-10-28T23:26:46.674Z,7.47
2022-10-28T23:29:14.033Z,8.10
2022-10-28T23:31:40.396Z,7.47
2022-10-28T23:34:06.879Z,6.93
2022-10-28T23:36:34.677Z,5.93
2022-10-28T23:39:01.019Z,7.07
2022-10-28T23:41:28.372Z,7.70
2022-10-28T23:43:54.704Z,7.97
2022-10-28T23:46:21.530Z,7.68
2022-10-28T23:48:47.872Z,7.68
2022-10-28T23:51:14.436Z,7.22
2022-10-28T23:53:40.847Z,7.00
2022-10-28T23:56:07.294Z,6.65
2022-10-28T23:58:33.716Z,7.70
